sensor_id;sensor_type;location;lat;lon;timestamp;temperature;humidity
13426;DHT22;6785;57.918;12.530;2022-12-20T00:00:53;3.10;99.90
13426;DHT22;6785;57.918;12.530;2022-12-20T00:03:20;3.10;99.90
13426;DHT22;6785;57.918;12.530;2022-12-20T00:05:48;3.10;99.90
13426;DHT22;6785;57.918;12.530;2022-12-20T00:08:15;3.10;99.90
13426;DHT22;6785;57.918;12.530;2022-12-20T00:10:44;3.10;99.90
13426;DHT22;6785;57.918;12.530;2022-12-20T00:13:12;3.10;99.90
13426;DHT22;6785;57.918;12.530;2022-12-20T00:15:38;3.10;99.90
13426;DHT22;6785;57.918;12.530;2022-12-20T00:18:05;3.10;99.90
13426;DHT22;6785;57.918;12.530;2022-12-20T00:20:32;3.10;99.90
13426;DHT22;6785;57.918;12.530;2022-12-20T00:23:01;3.10;99.90
13426;DHT22;6785;57.918;12.530;2022-12-20T00:25:27;3.10;99.90
13426;DHT22;6785;57.918;12.530;2022-12-20T00:27:54;3.10;99.90
13426;DHT22;6785;57.918;12.530;2022-12-20T00:30:21;3.10;99.90
13426;DHT22;6785;57.918;12.530;2022-12-20T00:32:48;3.20;99.90
13426;DHT22;6785;57.918;12.530;2022-12-20T00:35:15;3.30;99.90
13426;DHT22;6785;57.918;12.530;2022-12-20T00:37:41;3.30;99.90
13426;DHT22;6785;57.918;12.530;2022-12-20T00:40:10;3.30;99.90
13426;DHT22;6785;57.918;12.530;2022-12-20T00:42:36;3.30;99.90
13426;DHT22;6785;57.918;12.530;2022-12-20T00:45:04;3.30;99.90
13426;DHT22;6785;57.918;12.530;2022-12-20T00:47:30;3.30;99.90
13426;DHT22;6785;57.918;12.530;2022-12-20T00:49:58;3.30;99.90
13426;DHT22;6785;57.918;12.530;2022-12-20T00:52:24;3.30;99.90
13426;DHT22;6785;57.918;12.530;2022-12-20T00:54:51;3.40;99.90
13426;DHT22;6785;57.918;12.530;2022-12-20T00:57:19;3.40;99.90
13426;DHT22;6785;57.918;12.530;2022-12-20T00:59:46;3.40;99.90
13426;DHT22;6785;57.918;12.530;2022-12-20T01:02:12;3.50;99.90
13426;DHT22;6785;57.918;12.530;2022-12-20T01:04:39;3.50;99.90
13426;DHT22;6785;57.918;12.530;2022-12-20T01:07:06;3.50;99.90
13426;DHT22;6785;57.918;12.530;2022-12-20T01:09:33;3.50;99.90
13426;DHT22;6785;57.918;12.530;2022-12-20T01:11:59;3.50;99.90
13426;DHT22;6785;57.918;12.530;2022-12-20T01:14:27;3.60;99.90
13426;DHT22;6785;57.918;12.530;2022-12-20T01:16:54;3.60;99.90
13426;DHT22;6785;57.918;12.530;2022-12-20T01:19:21;3.60;99.90
13426;DHT22;6785;57.918;12.530;2022-12-20T01:21:47;3.60;99.90
13426;DHT22;6785;57.918;12.530;2022-12-20T01:24:16;3.60;99.90
13426;DHT22;6785;57.918;12.530;2022-12-20T01:26:44;3.60;99.90
13426;DHT22;6785;57.918;12.530;2022-12-20T01:29:11;3.60;99.90
13426;DHT22;6785;57.918;12.530;2022-12-20T01:31:39;3.60;99.90
13426;DHT22;6785;57.918;12.530;2022-12-20T01:34:06;3.60;99.90
13426;DHT22;6785;57.918;12.530;2022-12-20T01:36:34;3.60;99.90
13426;DHT22;6785;57.918;12.530;2022-12-20T01:39:04;3.70;99.90
13426;DHT22;6785;57.918;12.530;2022-12-20T01:41:34;3.70;99.90
13426;DHT22;6785;57.918;12.530;2022-12-20T01:44:03;3.70;99.90
13426;DHT22;6785;57.918;12.530;2022-12-20T01:46:31;3.70;99.90
13426;DHT22;6785;57.918;12.530;2022-12-20T01:49:03;3.80;99.90
13426;DHT22;6785;57.918;12.530;2022-12-20T01:51:33;3.80;99.90
13426;DHT22;6785;57.918;12.530;2022-12-20T01:54:05;3.90;99.90
13426;DHT22;6785;57.918;12.530;2022-12-20T01:56:33;3.90;99.90
13426;DHT22;6785;57.918;12.530;2022-12-20T01:59:01;3.90;99.90
13426;DHT22;6785;57.918;12.530;2022-12-20T02:01:28;3.90;99.90
13426;DHT22;6785;57.918;12.530;2022-12-20T02:03:54;3.90;99.90
13426;DHT22;6785;57.918;12.530;2022-12-20T02:06:24;4.00;99.90
13426;DHT22;6785;57.918;12.530;2022-12-20T02:08:54;4.00;99.90
13426;DHT22;6785;57.918;12.530;2022-12-20T02:14:17;4.00;99.90
13426;DHT22;6785;57.918;12.530;2022-12-20T02:16:56;4.00;99.90
13426;DHT22;6785;57.918;12.530;2022-12-20T02:19:43;4.00;99.90
13426;DHT22;6785;57.918;12.530;2022-12-20T02:22:24;4.10;99.90
13426;DHT22;6785;57.918;12.530;2022-12-20T02:25:21;4.10;99.90
13426;DHT22;6785;57.918;12.530;2022-12-20T02:27:58;4.20;99.90
13426;DHT22;6785;57.918;12.530;2022-12-20T02:30:31;4.20;99.90
13426;DHT22;6785;57.918;12.530;2022-12-20T02:33:02;4.20;99.90
13426;DHT22;6785;57.918;12.530;2022-12-20T02:35:32;4.20;99.90
13426;DHT22;6785;57.918;12.530;2022-12-20T02:38:04;4.10;99.90
13426;DHT22;6785;57.918;12.530;2022-12-20T02:40:34;4.20;99.90
13426;DHT22;6785;57.918;12.530;2022-12-20T02:43:05;4.20;99.90
13426;DHT22;6785;57.918;12.530;2022-12-20T02:45:54;4.20;99.90
13426;DHT22;6785;57.918;12.530;2022-12-20T02:48:23;4.30;99.90
13426;DHT22;6785;57.918;12.530;2022-12-20T02:50:53;4.30;99.90
13426;DHT22;6785;57.918;12.530;2022-12-20T02:53:22;4.30;99.90
13426;DHT22;6785;57.918;12.530;2022-12-20T02:55:53;4.40;99.90
13426;DHT22;6785;57.918;12.530;2022-12-20T02:58:27;4.30;99.90
13426;DHT22;6785;57.918;12.530;2022-12-20T03:00:58;4.40;99.90
13426;DHT22;6785;57.918;12.530;2022-12-20T03:03:28;4.40;99.90
13426;DHT22;6785;57.918;12.530;2022-12-20T03:05:56;4.40;99.90
13426;DHT22;6785;57.918;12.530;2022-12-20T03:08:23;4.40;99.90
13426;DHT22;6785;57.918;12.530;2022-12-20T03:10:51;4.50;99.90
13426;DHT22;6785;57.918;12.530;2022-12-20T03:13:19;4.50;99.90
13426;DHT22;6785;57.918;12.530;2022-12-20T03:15:46;4.50;99.90
13426;DHT22;6785;57.918;12.530;2022-12-20T03:18:14;4.50;99.90
13426;DHT22;6785;57.918;12.530;2022-12-20T03:20:41;4.50;99.90
13426;DHT22;6785;57.918;12.530;2022-12-20T03:23:08;4.50;99.90
13426;DHT22;6785;57.918;12.530;2022-12-20T03:25:35;4.50;99.90
13426;DHT22;6785;57.918;12.530;2022-12-20T03:28:02;4.60;99.90
13426;DHT22;6785;57.918;12.530;2022-12-20T03:30:28;4.50;99.90
13426;DHT22;6785;57.918;12.530;2022-12-20T03:32:55;4.60;99.90
13426;DHT22;6785;57.918;12.530;2022-12-20T03:35:23;4.60;99.90
13426;DHT22;6785;57.918;12.530;2022-12-20T03:37:50;4.60;99.90
13426;DHT22;6785;57.918;12.530;2022-12-20T03:40:17;4.60;99.90
13426;DHT22;6785;57.918;12.530;2022-12-20T03:42:44;4.60;99.90
13426;DHT22;6785;57.918;12.530;2022-12-20T03:45:10;4.60;99.90
13426;DHT22;6785;57.918;12.530;2022-12-20T03:47:37;4.70;99.90
13426;DHT22;6785;57.918;12.530;2022-12-20T03:50:05;4.70;99.90
13426;DHT22;6785;57.918;12.530;2022-12-20T03:52:34;4.60;99.90
13426;DHT22;6785;57.918;12.530;2022-12-20T03:55:01;4.60;99.90
13426;DHT22;6785;57.918;12.530;2022-12-20T03:57:28;4.70;99.90
13426;DHT22;6785;57.918;12.530;2022-12-20T03:59:54;4.70;99.90
13426;DHT22;6785;57.918;12.530;2022-12-20T04:02:21;4.70;99.90
13426;DHT22;6785;57.918;12.530;2022-12-20T04:04:48;4.70;99.90
13426;DHT22;6785;57.918;12.530;2022-12-20T04:07:15;4.70;99.90
13426;DHT22;6785;57.918;12.530;2022-12-20T04:09:43;4.70;99.90
13426;DHT22;6785;57.918;12.530;2022-12-20T04:12:10;4.70;99.90
13426;DHT22;6785;57.918;12.530;2022-12-20T04:14:36;4.60;99.90
13426;DHT22;6785;57.918;12.530;2022-12-20T04:17:03;4.60;99.90
13426;DHT22;6785;57.918;12.530;2022-12-20T04:19:30;4.60;99.90
13426;DHT22;6785;57.918;12.530;2022-12-20T04:21:57;4.60;99.90
13426;DHT22;6785;57.918;12.530;2022-12-20T04:24:24;4.70;99.90
13426;DHT22;6785;57.918;12.530;2022-12-20T04:26:52;4.70;99.90
13426;DHT22;6785;57.918;12.530;2022-12-20T04:29:19;4.70;99.90
13426;DHT22;6785;57.918;12.530;2022-12-20T04:31:45;4.80;99.90
13426;DHT22;6785;57.918;12.530;2022-12-20T04:34:12;4.80;99.90
13426;DHT22;6785;57.918;12.530;2022-12-20T04:36:39;4.80;99.90
13426;DHT22;6785;57.918;12.530;2022-12-20T04:39:06;4.80;99.90
13426;DHT22;6785;57.918;12.530;2022-12-20T04:41:32;4.90;99.90
13426;DHT22;6785;57.918;12.530;2022-12-20T04:44:00;4.90;99.90
13426;DHT22;6785;57.918;12.530;2022-12-20T04:46:27;5.00;99.90
13426;DHT22;6785;57.918;12.530;2022-12-20T04:48:54;5.00;99.90
13426;DHT22;6785;57.918;12.530;2022-12-20T04:51:21;5.00;99.90
13426;DHT22;6785;57.918;12.530;2022-12-20T04:53:48;5.00;99.90
13426;DHT22;6785;57.918;12.530;2022-12-20T04:56:15;5.10;99.90
13426;DHT22;6785;57.918;12.530;2022-12-20T04:58:43;5.10;99.90
13426;DHT22;6785;57.918;12.530;2022-12-20T05:01:11;5.20;99.90
13426;DHT22;6785;57.918;12.530;2022-12-20T05:03:38;5.20;99.90
13426;DHT22;6785;57.918;12.530;2022-12-20T05:06:06;5.30;99.90
13426;DHT22;6785;57.918;12.530;2022-12-20T05:08:33;5.30;99.90
13426;DHT22;6785;57.918;12.530;2022-12-20T05:10:59;5.40;99.90
13426;DHT22;6785;57.918;12.530;2022-12-20T05:13:26;5.40;99.90
13426;DHT22;6785;57.918;12.530;2022-12-20T05:15:54;5.30;99.90
13426;DHT22;6785;57.918;12.530;2022-12-20T05:18:23;5.30;99.90
13426;DHT22;6785;57.918;12.530;2022-12-20T05:20:50;5.30;99.90
13426;DHT22;6785;57.918;12.530;2022-12-20T05:23:39;5.30;99.90
13426;DHT22;6785;57.918;12.530;2022-12-20T05:26:24;5.40;99.90
13426;DHT22;6785;57.918;12.530;2022-12-20T05:28:51;5.50;99.90
13426;DHT22;6785;57.918;12.530;2022-12-20T05:31:18;5.40;99.90
13426;DHT22;6785;57.918;12.530;2022-12-20T05:33:46;5.40;99.90
13426;DHT22;6785;57.918;12.530;2022-12-20T05:36:12;5.40;99.90
13426;DHT22;6785;57.918;12.530;2022-12-20T05:38:39;5.50;99.90
13426;DHT22;6785;57.918;12.530;2022-12-20T05:41:06;5.50;99.90
13426;DHT22;6785;57.918;12.530;2022-12-20T05:43:33;5.50;99.90
13426;DHT22;6785;57.918;12.530;2022-12-20T05:46:00;5.50;99.90
13426;DHT22;6785;57.918;12.530;2022-12-20T05:48:26;5.50;99.90
13426;DHT22;6785;57.918;12.530;2022-12-20T05:50:54;5.50;99.90
13426;DHT22;6785;57.918;12.530;2022-12-20T05:53:21;5.50;99.90
13426;DHT22;6785;57.918;12.530;2022-12-20T05:55:50;5.50;99.90
13426;DHT22;6785;57.918;12.530;2022-12-20T05:58:17;5.50;99.90
13426;DHT22;6785;57.918;12.530;2022-12-20T06:00:44;5.60;99.90
13426;DHT22;6785;57.918;12.530;2022-12-20T06:03:12;5.60;99.90
13426;DHT22;6785;57.918;12.530;2022-12-20T06:05:40;5.60;99.90
13426;DHT22;6785;57.918;12.530;2022-12-20T06:08:09;5.60;99.90
13426;DHT22;6785;57.918;12.530;2022-12-20T06:10:37;5.70;99.90
13426;DHT22;6785;57.918;12.530;2022-12-20T06:13:05;5.70;99.90
13426;DHT22;6785;57.918;12.530;2022-12-20T06:15:32;5.70;99.90
13426;DHT22;6785;57.918;12.530;2022-12-20T06:17:59;5.70;99.90
13426;DHT22;6785;57.918;12.530;2022-12-20T06:20:26;5.70;99.90
13426;DHT22;6785;57.918;12.530;2022-12-20T06:22:53;5.70;99.90
13426;DHT22;6785;57.918;12.530;2022-12-20T06:25:21;5.80;99.90
13426;DHT22;6785;57.918;12.530;2022-12-20T06:27:48;5.80;99.90
13426;DHT22;6785;57.918;12.530;2022-12-20T06:30:14;5.80;99.90
13426;DHT22;6785;57.918;12.530;2022-12-20T06:32:41;5.80;99.90
13426;DHT22;6785;57.918;12.530;2022-12-20T06:35:08;5.80;99.90
13426;DHT22;6785;57.918;12.530;2022-12-20T06:37:35;5.80;99.90
13426;DHT22;6785;57.918;12.530;2022-12-20T06:40:03;5.80;99.90
13426;DHT22;6785;57.918;12.530;2022-12-20T06:42:31;5.80;99.90
13426;DHT22;6785;57.918;12.530;2022-12-20T06:44:58;5.80;99.90
13426;DHT22;6785;57.918;12.530;2022-12-20T06:47:24;5.80;99.90
13426;DHT22;6785;57.918;12.530;2022-12-20T06:49:51;5.70;99.90
13426;DHT22;6785;57.918;12.530;2022-12-20T06:52:18;5.80;99.90
13426;DHT22;6785;57.918;12.530;2022-12-20T06:54:44;5.80;99.90
13426;DHT22;6785;57.918;12.530;2022-12-20T06:57:11;5.80;99.90
13426;DHT22;6785;57.918;12.530;2022-12-20T06:59:39;5.90;99.90
13426;DHT22;6785;57.918;12.530;2022-12-20T07:02:06;5.90;99.90
13426;DHT22;6785;57.918;12.530;2022-12-20T07:04:33;5.90;99.90
13426;DHT22;6785;57.918;12.530;2022-12-20T07:06:59;5.90;99.90
13426;DHT22;6785;57.918;12.530;2022-12-20T07:09:26;5.90;99.90
13426;DHT22;6785;57.918;12.530;2022-12-20T07:11:53;6.00;99.90
13426;DHT22;6785;57.918;12.530;2022-12-20T07:14:19;6.00;99.90
13426;DHT22;6785;57.918;12.530;2022-12-20T07:16:47;6.00;99.90
13426;DHT22;6785;57.918;12.530;2022-12-20T07:19:14;6.00;99.90
13426;DHT22;6785;57.918;12.530;2022-12-20T07:21:42;6.00;99.90
13426;DHT22;6785;57.918;12.530;2022-12-20T07:24:09;6.00;99.90
13426;DHT22;6785;57.918;12.530;2022-12-20T07:26:36;6.10;99.90
13426;DHT22;6785;57.918;12.530;2022-12-20T07:29:03;6.10;99.90
13426;DHT22;6785;57.918;12.530;2022-12-20T07:31:30;6.10;99.90
13426;DHT22;6785;57.918;12.530;2022-12-20T07:33:58;6.10;99.90
13426;DHT22;6785;57.918;12.530;2022-12-20T07:36:25;6.20;99.90
13426;DHT22;6785;57.918;12.530;2022-12-20T07:38:52;6.20;99.90
13426;DHT22;6785;57.918;12.530;2022-12-20T07:41:19;6.30;99.90
13426;DHT22;6785;57.918;12.530;2022-12-20T07:43:45;6.30;99.90
13426;DHT22;6785;57.918;12.530;2022-12-20T07:46:13;6.30;99.90
13426;DHT22;6785;57.918;12.530;2022-12-20T07:48:40;6.30;99.90
13426;DHT22;6785;57.918;12.530;2022-12-20T07:51:10;6.30;99.90
13426;DHT22;6785;57.918;12.530;2022-12-20T07:53:40;6.40;99.90
13426;DHT22;6785;57.918;12.530;2022-12-20T07:56:10;6.40;99.90
13426;DHT22;6785;57.918;12.530;2022-12-20T07:58:38;6.40;99.90
13426;DHT22;6785;57.918;12.530;2022-12-20T08:01:06;6.40;99.90
13426;DHT22;6785;57.918;12.530;2022-12-20T08:03:38;6.40;99.90
13426;DHT22;6785;57.918;12.530;2022-12-20T08:06:08;6.40;99.90
13426;DHT22;6785;57.918;12.530;2022-12-20T08:08:38;6.40;99.90
13426;DHT22;6785;57.918;12.530;2022-12-20T08:11:06;6.40;99.90
13426;DHT22;6785;57.918;12.530;2022-12-20T08:13:34;6.40;99.90
13426;DHT22;6785;57.918;12.530;2022-12-20T08:16:00;6.40;99.90
13426;DHT22;6785;57.918;12.530;2022-12-20T08:18:27;6.50;99.90
13426;DHT22;6785;57.918;12.530;2022-12-20T08:20:54;6.50;99.90
13426;DHT22;6785;57.918;12.530;2022-12-20T08:23:22;6.50;99.90
13426;DHT22;6785;57.918;12.530;2022-12-20T08:25:49;6.60;99.90
13426;DHT22;6785;57.918;12.530;2022-12-20T08:28:15;6.60;99.90
13426;DHT22;6785;57.918;12.530;2022-12-20T08:30:42;6.50;99.90
13426;DHT22;6785;57.918;12.530;2022-12-20T08:33:09;6.50;99.90
13426;DHT22;6785;57.918;12.530;2022-12-20T08:35:35;6.40;99.90
13426;DHT22;6785;57.918;12.530;2022-12-20T08:38:02;6.50;99.90
13426;DHT22;6785;57.918;12.530;2022-12-20T08:40:31;6.50;99.90
13426;DHT22;6785;57.918;12.530;2022-12-20T08:42:58;6.60;99.90
13426;DHT22;6785;57.918;12.530;2022-12-20T08:45:24;6.60;99.90
13426;DHT22;6785;57.918;12.530;2022-12-20T08:47:52;6.70;99.90
13426;DHT22;6785;57.918;12.530;2022-12-20T08:50:19;6.60;99.90
13426;DHT22;6785;57.918;12.530;2022-12-20T08:52:46;6.60;99.90
13426;DHT22;6785;57.918;12.530;2022-12-20T08:55:13;6.60;99.90
13426;DHT22;6785;57.918;12.530;2022-12-20T08:57:41;6.70;99.90
13426;DHT22;6785;57.918;12.530;2022-12-20T09:00:09;6.70;99.90
13426;DHT22;6785;57.918;12.530;2022-12-20T09:02:36;6.70;99.90
13426;DHT22;6785;57.918;12.530;2022-12-20T09:05:06;6.70;99.90
13426;DHT22;6785;57.918;12.530;2022-12-20T09:07:33;6.70;99.90
13426;DHT22;6785;57.918;12.530;2022-12-20T09:10:00;6.70;99.90
13426;DHT22;6785;57.918;12.530;2022-12-20T09:12:26;6.70;99.90
13426;DHT22;6785;57.918;12.530;2022-12-20T09:14:54;6.70;99.90
13426;DHT22;6785;57.918;12.530;2022-12-20T09:17:22;6.60;99.90
13426;DHT22;6785;57.918;12.530;2022-12-20T09:19:48;6.60;99.90
13426;DHT22;6785;57.918;12.530;2022-12-20T09:22:15;6.70;99.90
13426;DHT22;6785;57.918;12.530;2022-12-20T09:24:42;6.70;99.90
13426;DHT22;6785;57.918;12.530;2022-12-20T09:27:08;6.80;99.90
13426;DHT22;6785;57.918;12.530;2022-12-20T09:29:35;6.70;99.90
13426;DHT22;6785;57.918;12.530;2022-12-20T09:32:04;6.80;99.90
13426;DHT22;6785;57.918;12.530;2022-12-20T09:34:30;6.70;99.90
13426;DHT22;6785;57.918;12.530;2022-12-20T09:36:57;6.80;99.90
13426;DHT22;6785;57.918;12.530;2022-12-20T09:39:24;6.80;99.90
13426;DHT22;6785;57.918;12.530;2022-12-20T09:41:51;6.70;99.90
13426;DHT22;6785;57.918;12.530;2022-12-20T09:44:23;6.80;99.90
13426;DHT22;6785;57.918;12.530;2022-12-20T09:46:53;6.80;99.90
13426;DHT22;6785;57.918;12.530;2022-12-20T09:49:27;6.70;99.90
13426;DHT22;6785;57.918;12.530;2022-12-20T09:52:11;6.80;99.90
13426;DHT22;6785;57.918;12.530;2022-12-20T09:54:45;6.80;99.90
13426;DHT22;6785;57.918;12.530;2022-12-20T09:57:20;6.80;99.90
13426;DHT22;6785;57.918;12.530;2022-12-20T09:59:47;6.80;99.90
13426;DHT22;6785;57.918;12.530;2022-12-20T10:02:19;6.80;99.90
13426;DHT22;6785;57.918;12.530;2022-12-20T10:04:49;6.70;99.90
13426;DHT22;6785;57.918;12.530;2022-12-20T10:07:25;6.70;99.90
13426;DHT22;6785;57.918;12.530;2022-12-20T10:10:04;6.80;99.90
13426;DHT22;6785;57.918;12.530;2022-12-20T10:12:41;6.70;99.90
13426;DHT22;6785;57.918;12.530;2022-12-20T10:15:19;6.70;99.90
13426;DHT22;6785;57.918;12.530;2022-12-20T10:17:59;6.70;99.90
13426;DHT22;6785;57.918;12.530;2022-12-20T10:20:39;6.70;99.90
13426;DHT22;6785;57.918;12.530;2022-12-20T10:23:14;6.70;99.90
13426;DHT22;6785;57.918;12.530;2022-12-20T10:25:49;6.70;99.90
13426;DHT22;6785;57.918;12.530;2022-12-20T10:28:16;6.70;99.90
13426;DHT22;6785;57.918;12.530;2022-12-20T10:30:45;6.60;99.90
13426;DHT22;6785;57.918;12.530;2022-12-20T10:33:18;6.70;99.90
13426;DHT22;6785;57.918;12.530;2022-12-20T10:35:47;6.60;99.90
13426;DHT22;6785;57.918;12.530;2022-12-20T10:38:15;6.60;99.90
13426;DHT22;6785;57.918;12.530;2022-12-20T10:40:44;6.60;99.90
13426;DHT22;6785;57.918;12.530;2022-12-20T10:43:15;6.50;99.90
13426;DHT22;6785;57.918;12.530;2022-12-20T10:45:43;6.50;99.90
13426;DHT22;6785;57.918;12.530;2022-12-20T10:48:26;6.50;99.90
13426;DHT22;6785;57.918;12.530;2022-12-20T10:50:58;6.50;99.90
13426;DHT22;6785;57.918;12.530;2022-12-20T10:53:25;6.60;99.90
13426;DHT22;6785;57.918;12.530;2022-12-20T10:56:11;6.50;99.90
13426;DHT22;6785;57.918;12.530;2022-12-20T10:58:38;6.40;99.90
13426;DHT22;6785;57.918;12.530;2022-12-20T11:01:11;6.40;99.90
13426;DHT22;6785;57.918;12.530;2022-12-20T11:03:52;6.50;99.90
13426;DHT22;6785;57.918;12.530;2022-12-20T11:06:23;6.50;99.90
13426;DHT22;6785;57.918;12.530;2022-12-20T11:08:50;6.50;99.90
13426;DHT22;6785;57.918;12.530;2022-12-20T11:11:18;6.40;99.90
13426;DHT22;6785;57.918;12.530;2022-12-20T11:13:47;6.40;99.90
13426;DHT22;6785;57.918;12.530;2022-12-20T11:16:23;6.40;99.90
13426;DHT22;6785;57.918;12.530;2022-12-20T11:18:59;6.50;99.90
13426;DHT22;6785;57.918;12.530;2022-12-20T11:21:34;6.40;99.90
13426;DHT22;6785;57.918;12.530;2022-12-20T11:24:10;6.40;99.90
13426;DHT22;6785;57.918;12.530;2022-12-20T11:26:50;6.40;99.90
13426;DHT22;6785;57.918;12.530;2022-12-20T11:29:36;6.40;99.90
13426;DHT22;6785;57.918;12.530;2022-12-20T11:32:15;6.30;99.90
13426;DHT22;6785;57.918;12.530;2022-12-20T11:34:51;6.30;99.90
13426;DHT22;6785;57.918;12.530;2022-12-20T11:37:25;6.30;99.90
13426;DHT22;6785;57.918;12.530;2022-12-20T11:40:03;6.30;99.90
13426;DHT22;6785;57.918;12.530;2022-12-20T11:42:42;6.30;99.90
13426;DHT22;6785;57.918;12.530;2022-12-20T11:45:17;6.20;99.90
13426;DHT22;6785;57.918;12.530;2022-12-20T11:48:07;6.30;99.90
13426;DHT22;6785;57.918;12.530;2022-12-20T11:50:57;6.20;99.90
13426;DHT22;6785;57.918;12.530;2022-12-20T11:53:30;6.20;99.90
13426;DHT22;6785;57.918;12.530;2022-12-20T11:56:00;6.20;99.90
13426;DHT22;6785;57.918;12.530;2022-12-20T11:58:30;6.20;99.90
13426;DHT22;6785;57.918;12.530;2022-12-20T12:01:02;6.20;99.90
13426;DHT22;6785;57.918;12.530;2022-12-20T12:03:32;6.20;99.90
13426;DHT22;6785;57.918;12.530;2022-12-20T12:06:03;6.20;99.90
13426;DHT22;6785;57.918;12.530;2022-12-20T12:08:38;6.20;99.90
13426;DHT22;6785;57.918;12.530;2022-12-20T12:11:12;6.20;99.90
13426;DHT22;6785;57.918;12.530;2022-12-20T12:13:40;6.20;99.90
13426;DHT22;6785;57.918;12.530;2022-12-20T12:16:10;6.20;99.90
13426;DHT22;6785;57.918;12.530;2022-12-20T12:18:38;6.20;99.90
13426;DHT22;6785;57.918;12.530;2022-12-20T12:21:10;6.30;99.90
13426;DHT22;6785;57.918;12.530;2022-12-20T12:23:48;6.30;99.90
13426;DHT22;6785;57.918;12.530;2022-12-20T12:26:20;6.30;99.90
13426;DHT22;6785;57.918;12.530;2022-12-20T12:28:52;6.30;99.90
13426;DHT22;6785;57.918;12.530;2022-12-20T12:31:23;6.30;99.90
13426;DHT22;6785;57.918;12.530;2022-12-20T12:34:02;6.30;99.90
13426;DHT22;6785;57.918;12.530;2022-12-20T12:36:46;6.30;99.90
13426;DHT22;6785;57.918;12.530;2022-12-20T12:39:50;6.30;99.90
13426;DHT22;6785;57.918;12.530;2022-12-20T12:42:35;6.30;99.90
13426;DHT22;6785;57.918;12.530;2022-12-20T12:45:14;6.30;99.90
13426;DHT22;6785;57.918;12.530;2022-12-20T12:47:46;6.30;99.90
13426;DHT22;6785;57.918;12.530;2022-12-20T12:50:20;6.30;99.90
13426;DHT22;6785;57.918;12.530;2022-12-20T12:52:50;6.30;99.90
13426;DHT22;6785;57.918;12.530;2022-12-20T12:55:39;6.20;99.90
13426;DHT22;6785;57.918;12.530;2022-12-20T12:58:36;6.20;99.90
13426;DHT22;6785;57.918;12.530;2022-12-20T13:01:07;6.30;99.90
13426;DHT22;6785;57.918;12.530;2022-12-20T13:03:39;6.30;99.90
13426;DHT22;6785;57.918;12.530;2022-12-20T13:09:18;6.40;99.90
13426;DHT22;6785;57.918;12.530;2022-12-20T13:11:48;6.40;99.90
13426;DHT22;6785;57.918;12.530;2022-12-20T13:14:45;6.40;99.90
13426;DHT22;6785;57.918;12.530;2022-12-20T13:17:42;6.40;99.90
13426;DHT22;6785;57.918;12.530;2022-12-20T13:20:18;6.40;99.90
13426;DHT22;6785;57.918;12.530;2022-12-20T13:25:46;6.40;99.90
13426;DHT22;6785;57.918;12.530;2022-12-20T13:28:44;6.40;99.90
13426;DHT22;6785;57.918;12.530;2022-12-20T13:31:30;6.40;99.90
13426;DHT22;6785;57.918;12.530;2022-12-20T13:34:00;6.40;99.90
13426;DHT22;6785;57.918;12.530;2022-12-20T13:36:36;6.40;99.90
13426;DHT22;6785;57.918;12.530;2022-12-20T13:39:30;6.40;99.90
13426;DHT22;6785;57.918;12.530;2022-12-20T13:42:14;6.50;99.90
13426;DHT22;6785;57.918;12.530;2022-12-20T13:44:44;6.30;99.90
13426;DHT22;6785;57.918;12.530;2022-12-20T13:47:30;6.50;99.90
13426;DHT22;6785;57.918;12.530;2022-12-20T13:50:00;6.50;99.90
13426;DHT22;6785;57.918;12.530;2022-12-20T13:52:29;6.50;99.90
13426;DHT22;6785;57.918;12.530;2022-12-20T13:54:59;6.50;99.90
13426;DHT22;6785;57.918;12.530;2022-12-20T13:57:32;6.50;99.90
13426;DHT22;6785;57.918;12.530;2022-12-20T14:00:14;6.50;99.90
13426;DHT22;6785;57.918;12.530;2022-12-20T14:02:42;6.50;99.90
13426;DHT22;6785;57.918;12.530;2022-12-20T14:05:16;6.50;99.90
13426;DHT22;6785;57.918;12.530;2022-12-20T14:07:46;6.50;99.90
13426;DHT22;6785;57.918;12.530;2022-12-20T14:10:18;6.50;99.90
13426;DHT22;6785;57.918;12.530;2022-12-20T14:12:46;6.50;99.90
13426;DHT22;6785;57.918;12.530;2022-12-20T14:15:26;6.50;99.90
13426;DHT22;6785;57.918;12.530;2022-12-20T14:17:53;6.60;99.90
13426;DHT22;6785;57.918;12.530;2022-12-20T14:20:23;6.40;99.90
13426;DHT22;6785;57.918;12.530;2022-12-20T14:22:54;6.50;99.90
13426;DHT22;6785;57.918;12.530;2022-12-20T14:25:28;6.60;99.90
13426;DHT22;6785;57.918;12.530;2022-12-20T14:27:57;6.60;99.90
13426;DHT22;6785;57.918;12.530;2022-12-20T14:30:31;6.60;99.90
13426;DHT22;6785;57.918;12.530;2022-12-20T14:32:58;6.60;99.90
13426;DHT22;6785;57.918;12.530;2022-12-20T14:35:25;6.60;99.90
13426;DHT22;6785;57.918;12.530;2022-12-20T14:37:53;6.60;99.90
13426;DHT22;6785;57.918;12.530;2022-12-20T14:40:21;6.60;99.90
13426;DHT22;6785;57.918;12.530;2022-12-20T14:42:48;6.60;99.90
13426;DHT22;6785;57.918;12.530;2022-12-20T14:45:21;6.70;99.90
13426;DHT22;6785;57.918;12.530;2022-12-20T14:47:55;6.60;99.90
13426;DHT22;6785;57.918;12.530;2022-12-20T14:50:29;6.60;99.90
13426;DHT22;6785;57.918;12.530;2022-12-20T14:52:57;6.60;99.90
13426;DHT22;6785;57.918;12.530;2022-12-20T14:55:30;6.60;99.90
13426;DHT22;6785;57.918;12.530;2022-12-20T14:57:57;6.70;99.90
13426;DHT22;6785;57.918;12.530;2022-12-20T15:00:26;6.70;99.90
13426;DHT22;6785;57.918;12.530;2022-12-20T15:03:01;6.70;99.90
13426;DHT22;6785;57.918;12.530;2022-12-20T15:05:36;6.70;99.90
13426;DHT22;6785;57.918;12.530;2022-12-20T15:08:14;6.70;99.90
13426;DHT22;6785;57.918;12.530;2022-12-20T15:10:43;6.60;99.90
13426;DHT22;6785;57.918;12.530;2022-12-20T15:13:14;6.70;99.90
13426;DHT22;6785;57.918;12.530;2022-12-20T15:15:41;6.70;99.90
13426;DHT22;6785;57.918;12.530;2022-12-20T15:18:12;6.70;99.90
13426;DHT22;6785;57.918;12.530;2022-12-20T15:20:39;6.80;99.90
13426;DHT22;6785;57.918;12.530;2022-12-20T15:23:12;6.70;99.90
13426;DHT22;6785;57.918;12.530;2022-12-20T15:25:40;6.70;99.90
13426;DHT22;6785;57.918;12.530;2022-12-20T15:28:20;6.80;99.90
13426;DHT22;6785;57.918;12.530;2022-12-20T15:30:48;6.80;99.90
13426;DHT22;6785;57.918;12.530;2022-12-20T15:33:19;6.80;99.90
13426;DHT22;6785;57.918;12.530;2022-12-20T15:35:47;6.70;99.90
13426;DHT22;6785;57.918;12.530;2022-12-20T15:38:16;6.70;99.90
13426;DHT22;6785;57.918;12.530;2022-12-20T15:40:44;6.80;99.90
13426;DHT22;6785;57.918;12.530;2022-12-20T15:43:13;6.80;99.90
13426;DHT22;6785;57.918;12.530;2022-12-20T15:45:43;6.80;99.90
13426;DHT22;6785;57.918;12.530;2022-12-20T15:48:14;6.80;99.90
13426;DHT22;6785;57.918;12.530;2022-12-20T15:50:48;6.80;99.90
13426;DHT22;6785;57.918;12.530;2022-12-20T15:53:16;6.90;99.90
13426;DHT22;6785;57.918;12.530;2022-12-20T15:55:48;6.80;99.90
13426;DHT22;6785;57.918;12.530;2022-12-20T15:58:15;6.80;99.90
13426;DHT22;6785;57.918;12.530;2022-12-20T16:00:42;6.80;99.90
13426;DHT22;6785;57.918;12.530;2022-12-20T16:03:14;6.90;99.90
13426;DHT22;6785;57.918;12.530;2022-12-20T16:05:41;6.90;99.90
13426;DHT22;6785;57.918;12.530;2022-12-20T16:08:10;6.90;99.90
13426;DHT22;6785;57.918;12.530;2022-12-20T16:10:36;6.90;99.90
13426;DHT22;6785;57.918;12.530;2022-12-20T16:13:03;6.90;99.90